Time;durP1;ratioP1;P1;durP2;ratioP2;P2;SDS_P1;SDS_P2;PMS_P1;PMS_P2;Temp;Humidity;BMP_temperature;BMP_pressure;BME280_temperature;BME280_humidity;BME280_pressure;Samples;Min_cycle;Max_cycle;Signal;HPM_P1;HPM_P2
2022/01/14 00:00:28;;;;;;;29.47;18.70;;;;;;;5.08;100.00;102668.72;5002601;28;20283;-55
2022/01/14 00:02:54;;;;;;;29.60;17.93;;;;;;;5.20;100.00;102658.06;4999099;28;20738;-53
2022/01/14 00:05:22;;;;;;;25.60;17.33;;;;;;;5.24;100.00;102660.00;4999974;28;20237;-53
2022/01/14 00:07:49;;;;;;;29.80;18.63;;;;;;;5.21;100.00;102660.75;4998221;28;20242;-54
2022/01/14 00:10:16;;;;;;;30.23;18.17;;;;;;;5.24;100.00;102654.81;4999191;28;20257;-54
2022/01/14 00:12:51;;;;;;;25.77;18.27;;;;;;;5.19;100.00;102662.34;4998695;28;20264;-54
2022/01/14 00:15:24;;;;;;;28.50;19.20;;;;;;;5.21;100.00;102659.84;4999505;28;20796;-55
2022/01/14 00:17:51;;;;;;;24.47;16.17;;;;;;;5.20;100.00;102658.97;5001020;28;20242;-54
2022/01/14 00:20:17;;;;;;;24.93;18.83;;;;;;;5.18;100.00;102663.19;5005072;28;20232;-56
2022/01/14 00:22:45;;;;;;;27.27;18.37;;;;;;;5.18;100.00;102660.56;5002567;28;20408;-55
2022/01/14 00:33:20;;;;;;;30.87;19.43;;;;;;;5.36;100.00;102651.94;5023191;28;20366;-54
2022/01/14 00:35:46;;;;;;;29.83;17.60;;;;;;;5.25;100.00;102654.88;5021311;28;20229;-54
2022/01/14 00:38:14;;;;;;;33.90;18.33;;;;;;;5.15;100.00;102650.00;5015692;28;20284;-55
2022/01/14 00:40:41;;;;;;;25.03;19.20;;;;;;;5.23;100.00;102656.53;5020748;28;20241;-54
2022/01/14 00:43:09;;;;;;;24.67;17.00;;;;;;;5.26;100.00;102661.91;5018690;28;20233;-54
2022/01/14 00:45:35;;;;;;;22.63;16.77;;;;;;;5.18;100.00;102657.09;5024907;28;20244;-53
2022/01/14 00:48:02;;;;;;;29.27;16.80;;;;;;;5.31;100.00;102653.41;5018001;28;20238;-54
2022/01/14 00:50:29;;;;;;;31.70;19.23;;;;;;;5.17;100.00;102663.13;5021959;28;20359;-54
2022/01/14 00:52:56;;;;;;;29.47;17.57;;;;;;;5.12;100.00;102660.25;5021671;28;20292;-56
2022/01/14 00:55:28;;;;;;;26.53;19.27;;;;;;;5.26;100.00;102659.28;5006842;28;20267;-54
2022/01/14 01:00:38;;;;;;;29.17;17.23;;;;;;;5.29;100.00;102655.03;5000259;28;20231;-55
2022/01/14 01:03:05;;;;;;;25.30;16.57;;;;;;;5.34;100.00;102653.59;4999136;28;20234;-53
2022/01/14 01:05:31;;;;;;;31.03;18.97;;;;;;;5.37;100.00;102656.31;4999159;28;26039;-54
2022/01/14 01:08:04;;;;;;;26.77;16.83;;;;;;;5.32;100.00;102648.28;4996930;28;20234;-54
2022/01/14 01:10:33;;;;;;;27.50;18.23;;;;;;;5.43;100.00;102657.53;5001139;28;20244;-55
2022/01/14 01:13:05;;;;;;;21.97;15.90;;;;;;;5.23;100.00;102648.72;4992807;28;20288;-53
2022/01/14 01:15:32;;;;;;;25.83;17.97;;;;;;;5.28;100.00;102655.84;4992324;28;20326;-54
2022/01/14 01:17:58;;;;;;;32.07;18.67;;;;;;;5.25;100.00;102649.66;5001039;28;20225;-56
2022/01/14 01:20:24;;;;;;;32.50;17.60;;;;;;;5.26;100.00;102651.47;4998632;28;20605;-54
2022/01/14 01:22:54;;;;;;;28.77;18.33;;;;;;;5.32;100.00;102648.28;4991469;28;20225;-55
2022/01/14 01:25:21;;;;;;;25.73;17.27;;;;;;;5.22;100.00;102649.50;5000561;28;20263;-54
2022/01/14 01:27:50;;;;;;;25.43;16.90;;;;;;;5.24;100.00;102645.28;4996848;28;20928;-53
2022/01/14 01:30:47;;;;;;;24.47;17.30;;;;;;;5.18;100.00;102641.47;4999832;28;20276;-55
2022/01/14 01:33:05;;;;;;;23.83;15.90;;;;;;;5.33;100.00;102641.34;5008549;28;20335;-55
2022/01/14 01:35:32;;;;;;;26.37;17.87;;;;;;;5.33;100.00;102644.84;4998276;28;20249;-60
2022/01/14 01:37:59;;;;;;;25.33;16.90;;;;;;;5.38;100.00;102647.72;4995214;28;20295;-54
2022/01/14 01:40:27;;;;;;;25.37;16.37;;;;;;;5.34;100.00;102640.56;4999565;28;20341;-55
2022/01/14 01:42:56;;;;;;;32.83;16.07;;;;;;;5.38;100.00;102647.72;4997446;28;20226;-54
2022/01/14 01:45:25;;;;;;;24.60;16.07;;;;;;;5.52;100.00;102645.81;4999400;28;20243;-54
2022/01/14 01:47:54;;;;;;;30.13;16.87;;;;;;;5.44;100.00;102634.97;5001450;28;20296;-55
2022/01/14 01:50:23;;;;;;;27.27;17.50;;;;;;;5.44;100.00;102637.56;4994923;28;20241;-55
2022/01/14 01:52:49;;;;;;;27.30;16.83;;;;;;;5.41;100.00;102632.25;4999477;28;20229;-55
2022/01/14 01:55:16;;;;;;;27.03;16.90;;;;;;;5.39;100.00;102637.34;4993450;28;20259;-53
2022/01/14 01:57:43;;;;;;;28.70;18.63;;;;;;;5.27;100.00;102634.13;5000002;28;20745;-54
2022/01/14 02:00:13;;;;;;;26.93;17.00;;;;;;;5.25;100.00;102636.66;5002544;28;20234;-53
2022/01/14 02:02:39;;;;;;;36.47;20.47;;;;;;;5.24;100.00;102632.25;5006170;28;20291;-53
2022/01/14 02:05:07;;;;;;;31.87;19.27;;;;;;;5.26;100.00;102635.84;4995491;28;20237;-55
2022/01/14 02:07:34;;;;;;;29.70;18.13;;;;;;;5.34;100.00;102625.81;4993483;28;20287;-55
2022/01/14 02:10:00;;;;;;;29.10;17.43;;;;;;;5.20;100.00;102632.03;4999782;28;20332;-55
2022/01/14 02:12:34;;;;;;;28.90;18.33;;;;;;;5.21;100.00;102634.69;5004433;28;20233;-55
2022/01/14 02:15:10;;;;;;;28.27;16.73;;;;;;;5.26;100.00;102638.47;4999858;28;20560;-55
2022/01/14 02:17:52;;;;;;;25.47;17.33;;;;;;;5.23;100.00;102637.41;4996068;28;20585;-52
2022/01/14 02:23:06;;;;;;;32.07;17.33;;;;;;;5.29;100.00;102626.38;4991716;28;20256;-54
2022/01/14 02:25:33;;;;;;;31.53;19.50;;;;;;;5.26;100.00;102632.31;4985104;28;20365;-54
2022/01/14 02:28:01;;;;;;;26.23;17.07;;;;;;;5.35;100.00;102626.72;5000570;28;20225;-53
2022/01/14 02:30:28;;;;;;;32.70;18.67;;;;;;;5.18;100.00;102628.44;4998628;28;20292;-55
2022/01/14 02:32:55;;;;;;;29.67;19.00;;;;;;;5.15;100.00;102630.88;5002438;28;20261;-55
2022/01/14 02:35:23;;;;;;;27.73;18.67;;;;;;;5.13;100.00;102624.72;5002435;28;20265;-55
2022/01/14 02:37:50;;;;;;;30.33;17.90;;;;;;;5.22;100.00;102615.66;5001073;28;20265;-55
2022/01/14 02:40:18;;;;;;;31.87;18.87;;;;;;;5.13;100.00;102610.00;4985281;28;20262;-54
2022/01/14 02:42:47;;;;;;;28.60;17.37;;;;;;;5.14;100.00;102603.97;4990056;28;20263;-54
2022/01/14 02:45:13;;;;;;;33.30;19.27;;;;;;;5.18;100.00;102600.69;4991125;28;20639;-55
2022/01/14 02:47:40;;;;;;;26.47;18.23;;;;;;;5.19;100.00;102599.88;4990264;28;20253;-55
2022/01/14 02:50:09;;;;;;;29.50;19.90;;;;;;;5.17;100.00;102601.53;4985107;28;20253;-55
2022/01/14 02:52:54;;;;;;;28.17;18.80;;;;;;;5.13;100.00;102607.38;4989389;28;20234;-53
2022/01/14 02:55:22;;;;;;;31.03;18.40;;;;;;;5.15;100.00;102603.13;5001096;28;20237;-54
2022/01/14 02:57:51;;;;;;;34.47;19.97;;;;;;;4.94;100.00;102592.50;4994345;28;20226;-55
2022/01/14 03:00:19;;;;;;;35.90;19.63;;;;;;;4.88;100.00;102596.50;4993722;28;20325;-53
2022/01/14 03:02:48;;;;;;;29.60;19.10;;;;;;;4.88;100.00;102591.28;4999630;28;20281;-53
2022/01/14 03:05:16;;;;;;;34.40;20.20;;;;;;;4.90;100.00;102595.78;4990262;28;20268;-53
2022/01/14 03:07:44;;;;;;;36.70;21.23;;;;;;;4.88;100.00;102588.69;4998195;28;21018;-54
2022/01/14 03:10:12;;;;;;;30.93;21.03;;;;;;;4.97;100.00;102592.66;4999661;28;20229;-55
2022/01/14 03:12:40;;;;;;;33.33;19.93;;;;;;;4.97;100.00;102597.00;4997367;28;20297;-54
2022/01/14 03:15:08;;;;;;;42.27;21.30;;;;;;;4.90;100.00;102585.38;4996074;28;20303;-56
2022/01/14 03:17:35;;;;;;;37.70;21.43;;;;;;;4.87;100.00;102581.72;4993949;28;20259;-53
2022/01/14 03:20:02;;;;;;;36.40;20.70;;;;;;;4.75;100.00;102580.25;5004208;28;20710;-54
2022/01/14 03:22:32;;;;;;;33.50;20.53;;;;;;;4.78;100.00;102585.63;5002822;28;20291;-53
2022/01/14 03:27:45;;;;;;;39.73;22.07;;;;;;;4.81;100.00;102569.28;4994736;28;20376;-54
2022/01/14 03:30:12;;;;;;;31.70;21.13;;;;;;;4.82;100.00;102570.19;4995408;28;20333;-54
2022/01/14 03:32:39;;;;;;;37.20;20.17;;;;;;;4.66;100.00;102571.97;4996255;28;20287;-54
2022/01/14 03:35:07;;;;;;;40.23;21.33;;;;;;;4.70;100.00;102576.53;4995918;28;20241;-52
2022/01/14 03:37:33;;;;;;;46.17;22.47;;;;;;;4.72;100.00;102558.41;4995907;28;20263;-53
2022/01/14 03:40:01;;;;;;;42.43;23.57;;;;;;;4.71;100.00;102554.91;4991328;28;20302;-55
2022/01/14 03:42:27;;;;;;;37.30;21.13;;;;;;;4.74;100.00;102554.19;4995377;28;20809;-53
2022/01/14 03:44:53;;;;;;;37.20;21.57;;;;;;;4.82;100.00;102549.38;4994576;28;20263;-54
2022/01/14 03:47:20;;;;;;;40.13;21.23;;;;;;;4.71;100.00;102551.41;4997088;28;20241;-55
2022/01/14 03:49:46;;;;;;;29.80;19.53;;;;;;;4.74;100.00;102536.84;4995714;28;20264;-54
2022/01/14 03:52:13;;;;;;;32.83;20.10;;;;;;;4.76;100.00;102543.00;5002600;28;20299;-53
2022/01/14 03:54:40;;;;;;;37.70;20.17;;;;;;;4.58;100.00;102523.84;5008944;28;20268;-55
2022/01/14 03:57:07;;;;;;;35.37;20.60;;;;;;;4.66;100.00;102532.94;5000289;28;20296;-54
2022/01/14 03:59:34;;;;;;;37.67;20.90;;;;;;;4.62;100.00;102531.00;4999763;28;20702;-53
2022/01/14 04:02:00;;;;;;;32.97;20.30;;;;;;;4.61;100.00;102529.22;4995783;28;20727;-53
2022/01/14 04:04:26;;;;;;;41.67;21.30;;;;;;;4.61;100.00;102523.13;5002181;28;20283;-53
2022/01/14 04:06:53;;;;;;;33.53;20.30;;;;;;;4.50;100.00;102522.56;5000902;28;20261;-56
2022/01/14 04:09:19;;;;;;;36.13;22.00;;;;;;;4.57;100.00;102521.19;4992427;28;20233;-53
2022/01/14 04:11:46;;;;;;;29.57;17.80;;;;;;;4.51;100.00;102524.34;5000569;28;20287;-51
2022/01/14 04:16:58;;;;;;;39.30;18.90;;;;;;;4.63;100.00;102504.16;4994049;28;20313;-54
2022/01/14 04:19:26;;;;;;;32.50;20.63;;;;;;;4.49;100.00;102507.75;4995242;28;20233;-54
2022/01/14 04:21:53;;;;;;;34.47;19.77;;;;;;;4.55;100.00;102508.97;4994902;28;20229;-53
2022/01/14 04:24:19;;;;;;;34.93;19.50;;;;;;;4.59;100.00;102514.34;4996560;28;20283;-55
2022/01/14 04:26:45;;;;;;;30.83;20.43;;;;;;;4.55;100.00;102513.28;4996288;28;20225;-54
2022/01/14 04:29:13;;;;;;;35.97;19.13;;;;;;;4.59;100.00;102514.34;4995601;28;20255;-54
2022/01/14 04:31:39;;;;;;;29.23;20.27;;;;;;;4.66;100.00;102512.13;4997569;28;20350;-54
2022/01/14 04:34:06;;;;;;;29.90;19.17;;;;;;;4.77;100.00;102511.00;4995464;28;20249;-53
2022/01/14 04:36:33;;;;;;;34.27;20.53;;;;;;;4.68;100.00;102514.81;4995642;28;20714;-55
2022/01/14 04:38:59;;;;;;;31.93;19.67;;;;;;;4.63;100.00;102504.16;4998793;28;20781;-54
2022/01/14 04:41:26;;;;;;;34.67;21.13;;;;;;;4.73;100.00;102501.22;4995930;28;20303;-54
2022/01/14 04:43:52;;;;;;;25.43;19.00;;;;;;;4.71;100.00;102509.78;4991307;28;20386;-53
2022/01/14 04:46:49;;;;;;;34.73;19.87;;;;;;;4.56;100.00;102499.44;4994752;28;20287;-54
2022/01/14 04:49:16;;;;;;;32.83;21.40;;;;;;;4.69;100.00;102494.06;4996290;28;20243;-53
2022/01/14 04:51:42;;;;;;;31.03;19.40;;;;;;;4.63;100.00;102485.94;4994138;28;20783;-53
2022/01/14 04:54:10;;;;;;;36.00;20.03;;;;;;;4.67;100.00;102472.31;4998607;28;20237;-54
2022/01/14 04:56:36;;;;;;;33.00;20.23;;;;;;;4.64;100.00;102466.94;4999316;28;20264;-54
2022/01/14 04:59:02;;;;;;;31.80;20.43;;;;;;;4.66;100.00;102465.28;4999395;28;20713;-56
2022/01/14 05:01:32;;;;;;;34.03;19.70;;;;;;;4.70;100.00;102463.75;4997774;28;20233;-55
2022/01/14 05:03:59;;;;;;;31.90;20.00;;;;;;;4.70;100.00;102461.13;5009839;28;20819;-54
2022/01/14 05:06:25;;;;;;;29.10;19.50;;;;;;;4.69;100.00;102455.06;5010517;28;20239;-54
2022/01/14 05:08:51;;;;;;;31.77;20.10;;;;;;;4.61;100.00;102465.91;5007656;28;20298;-54
2022/01/14 05:11:24;;;;;;;33.00;19.40;;;;;;;4.66;100.00;102465.28;4998170;28;20245;-55
2022/01/14 05:13:51;;;;;;;30.73;18.87;;;;;;;4.70;100.00;102468.94;5005424;28;20281;-53
2022/01/14 05:16:17;;;;;;;33.47;20.37;;;;;;;4.78;100.00;102468.53;5001086;28;20734;-56
2022/01/14 05:18:45;;;;;;;28.53;18.80;;;;;;;4.83;100.00;102462.66;5004358;28;20260;-55
2022/01/14 05:21:13;;;;;;;37.90;21.43;;;;;;;4.71;100.00;102463.84;5000782;28;20269;-54
2022/01/14 05:23:39;;;;;;;30.20;19.03;;;;;;;4.70;100.00;102472.47;5003995;28;20252;-54
2022/01/14 05:26:06;;;;;;;28.87;19.00;;;;;;;4.74;100.00;102466.59;5002433;28;20295;-54
2022/01/14 05:28:32;;;;;;;31.13;20.17;;;;;;;4.79;100.00;102462.50;4990957;28;20233;-53
2022/01/14 05:30:58;;;;;;;35.57;20.57;;;;;;;4.83;100.00;102460.06;4999664;28;20299;-55
2022/01/14 05:33:25;;;;;;;33.43;18.87;;;;;;;4.86;100.00;102460.22;5003229;28;20735;-54
2022/01/14 05:35:52;;;;;;;31.67;20.27;;;;;;;4.83;100.00;102457.47;5002469;28;20650;-51
2022/01/14 05:38:19;;;;;;;36.20;19.90;;;;;;;4.76;100.00;102456.25;4999764;28;20320;-54
2022/01/14 05:40:45;;;;;;;34.40;19.33;;;;;;;4.73;100.00;102449.19;5002306;28;20291;-53
2022/01/14 05:43:11;;;;;;;33.10;21.47;;;;;;;4.76;100.00;102454.53;4998709;28;20238;-55
2022/01/14 05:45:38;;;;;;;33.73;21.40;;;;;;;4.71;100.00;102455.16;5002481;28;20722;-54
2022/01/14 05:48:06;;;;;;;33.83;20.80;;;;;;;4.70;100.00;102454.25;4998391;28;20250;-55
2022/01/14 05:50:32;;;;;;;34.83;20.83;;;;;;;4.78;100.00;102460.72;5002981;28;20239;-53
2022/01/14 05:53:00;;;;;;;34.23;20.40;;;;;;;4.83;100.00;102447.06;4993408;28;20229;-54
2022/01/14 05:55:26;;;;;;;34.20;20.30;;;;;;;4.70;100.00;102437.72;4994864;28;20246;-53
2022/01/14 05:57:52;;;;;;;33.03;20.20;;;;;;;4.65;100.00;102441.81;5001286;28;20300;-52
2022/01/14 06:00:21;;;;;;;37.10;21.47;;;;;;;4.63;100.00;102440.84;4999910;28;20233;-52
2022/01/14 06:02:48;;;;;;;36.17;21.47;;;;;;;4.62;100.00;102442.56;4997555;28;20651;-52
2022/01/14 06:05:15;;;;;;;34.27;22.77;;;;;;;4.60;100.00;102444.19;4998921;28;20233;-54
2022/01/14 06:07:41;;;;;;;41.10;23.73;;;;;;;4.48;100.00;102439.25;4995207;28;20335;-52
2022/01/14 06:10:10;;;;;;;40.70;22.90;;;;;;;4.55;100.00;102443.06;5002241;28;20822;-53
2022/01/14 06:12:37;;;;;;;43.60;24.00;;;;;;;4.53;100.00;102439.50;4990453;28;20262;-54
2022/01/14 06:15:04;;;;;;;49.73;26.03;;;;;;;4.56;100.00;102434.44;4989105;28;20245;-54
2022/01/14 06:17:30;;;;;;;41.83;23.97;;;;;;;4.66;100.00;102434.09;4996417;28;20257;-55
2022/01/14 06:19:57;;;;;;;44.27;25.00;;;;;;;4.45;100.00;102446.88;5000560;28;20906;-54
2022/01/14 06:22:23;;;;;;;44.43;24.73;;;;;;;4.41;100.00;102431.94;4990846;28;21023;-55
2022/01/14 06:24:50;;;;;;;53.43;25.77;;;;;;;4.46;100.00;102430.50;4996964;28;20253;-54
2022/01/14 06:27:18;;;;;;;47.57;27.53;;;;;;;4.53;100.00;102431.69;4993791;28;20932;-53
2022/01/14 06:29:44;;;;;;;56.60;27.10;;;;;;;4.57;100.00;102443.16;4989645;28;20264;-53
2022/01/14 06:32:10;;;;;;;60.57;28.20;;;;;;;4.57;100.00;102444.03;4993918;28;20237;-56
2022/01/14 06:34:37;;;;;;;53.80;28.37;;;;;;;4.44;100.00;102454.63;4996940;28;20279;-55
2022/01/14 06:37:03;;;;;;;50.07;25.50;;;;;;;4.51;100.00;102456.72;5001205;28;20270;-54
2022/01/14 06:39:30;;;;;;;51.80;26.97;;;;;;;4.65;100.00;102452.22;5002832;28;20233;-54
2022/01/14 06:41:56;;;;;;;44.33;24.30;;;;;;;4.74;100.00;102460.50;5002821;28;20228;-55
2022/01/14 06:44:24;;;;;;;50.37;25.53;;;;;;;4.70;100.00;102456.88;5004480;28;20242;-55
2022/01/14 06:46:50;;;;;;;47.10;25.47;;;;;;;4.79;100.00;102472.91;5013628;28;20233;-56
2022/01/14 06:49:16;;;;;;;48.87;24.43;;;;;;;4.70;100.00;102476.75;4997577;28;20241;-56
2022/01/14 06:51:43;;;;;;;44.20;22.03;;;;;;;4.79;100.00;102501.53;5002628;28;20295;-55
2022/01/14 06:54:09;;;;;;;43.70;24.17;;;;;;;4.79;100.00;102493.72;5001794;28;20283;-54
2022/01/14 06:56:38;;;;;;;41.10;24.03;;;;;;;4.86;100.00;102475.84;5001579;28;20264;-56
2022/01/14 06:59:04;;;;;;;41.40;23.27;;;;;;;4.84;100.00;102480.94;4988573;28;20234;-55
2022/01/14 07:01:32;;;;;;;44.60;23.80;;;;;;;4.86;100.00;102478.44;4999291;28;20244;-55
2022/01/14 07:03:58;;;;;;;41.57;23.20;;;;;;;4.84;100.00;102485.25;4994207;28;20232;-54
2022/01/14 07:06:25;;;;;;;38.73;21.17;;;;;;;4.86;100.00;102486.25;5003428;28;20346;-57
2022/01/14 07:08:52;;;;;;;36.93;21.93;;;;;;;4.93;100.00;102472.72;5009048;28;20214;-54
2022/01/14 07:11:18;;;;;;;38.27;21.67;;;;;;;4.99;100.00;102467.84;5009029;28;20804;-53
2022/01/14 07:13:44;;;;;;;36.70;20.83;;;;;;;4.95;100.00;102463.25;5012260;28;20293;-54
2022/01/14 07:16:11;;;;;;;31.13;20.83;;;;;;;5.02;100.00;102468.88;4993506;28;20314;-53
2022/01/14 07:18:38;;;;;;;34.10;21.70;;;;;;;4.93;100.00;102460.59;5002193;28;20234;-56
2022/01/14 07:21:05;;;;;;;32.20;19.83;;;;;;;4.97;100.00;102464.25;5011335;28;20325;-56
2022/01/14 07:23:31;;;;;;;35.37;21.13;;;;;;;4.94;100.00;102471.91;5014567;28;20288;-54
2022/01/14 07:25:57;;;;;;;39.87;20.00;;;;;;;4.99;100.00;102457.41;5003443;28;20225;-54
2022/01/14 07:28:23;;;;;;;31.13;19.63;;;;;;;4.98;100.00;102468.63;4997684;28;20331;-54
2022/01/14 07:30:50;;;;;;;40.10;20.87;;;;;;;4.94;100.00;102453.69;5004461;28;20225;-59
2022/01/14 07:33:17;;;;;;;41.00;20.97;;;;;;;4.95;100.00;102452.84;5015384;28;20218;-53
2022/01/14 07:35:45;;;;;;;36.70;19.97;;;;;;;4.91;100.00;102461.34;5019434;28;20223;-58
2022/01/14 07:38:11;;;;;;;28.17;18.33;;;;;;;4.94;100.00;102467.59;5015857;28;20249;-57
2022/01/14 07:40:39;;;;;;;36.73;19.07;;;;;;;4.99;100.00;102471.31;5018318;28;20218;-55
2022/01/14 07:43:06;;;;;;;30.70;19.90;;;;;;;5.03;100.00;102467.16;5022876;28;20256;-53
2022/01/14 07:45:32;;;;;;;34.27;18.03;;;;;;;5.07;100.00;102463.00;5011564;28;20260;-55
2022/01/14 07:47:58;;;;;;;28.57;17.77;;;;;;;4.97;100.00;102461.63;5022530;28;20254;-54
2022/01/14 07:50:25;;;;;;;29.70;18.13;;;;;;;5.02;100.00;102454.97;4991520;28;20323;-54
2022/01/14 07:52:52;;;;;;;27.70;17.40;;;;;;;5.10;100.00;102463.16;4985851;28;20260;-54
2022/01/14 07:55:19;;;;;;;28.33;17.10;;;;;;;5.15;100.00;102456.44;4995205;28;20335;-54
2022/01/14 07:57:46;;;;;;;29.50;16.53;;;;;;;5.08;100.00;102454.34;4998330;28;20221;-56
2022/01/14 08:00:13;;;;;;;33.43;19.10;;;;;;;4.97;100.00;102459.03;4998295;28;20299;-53
2022/01/14 08:02:40;;;;;;;32.67;18.03;;;;;;;4.95;100.00;102447.66;4995712;28;20241;-54
2022/01/14 08:05:07;;;;;;;28.53;17.60;;;;;;;5.05;100.00;102444.69;4997110;28;20261;-54
2022/01/14 08:07:36;;;;;;;26.70;15.73;;;;;;;5.01;100.00;102453.16;4994045;28;21242;-54
2022/01/14 08:10:04;;;;;;;26.10;17.03;;;;;;;5.00;100.00;102447.06;4987310;28;20242;-54
2022/01/14 08:12:30;;;;;;;27.23;16.33;;;;;;;4.86;100.00;102455.03;4991368;28;20230;-53
2022/01/14 08:14:58;;;;;;;29.03;15.33;;;;;;;4.84;100.00;102444.50;4990636;28;20661;-53
2022/01/14 08:17:24;;;;;;;27.60;15.57;;;;;;;4.89;100.00;102457.78;4991463;28;20246;-54
2022/01/14 08:19:50;;;;;;;25.07;15.80;;;;;;;4.92;100.00;102452.72;4994176;28;20288;-56
2022/01/14 08:22:17;;;;;;;27.27;16.30;;;;;;;5.01;100.00;102451.44;4993543;28;20315;-53
2022/01/14 08:24:43;;;;;;;31.63;16.53;;;;;;;4.98;100.00;102447.81;4995179;28;20261;-54
2022/01/14 08:27:11;;;;;;;27.40;15.17;;;;;;;5.11;100.00;102439.78;4996522;28;20299;-54
2022/01/14 08:29:37;;;;;;;27.90;17.13;;;;;;;4.97;100.00;102446.91;4992579;28;20265;-54
2022/01/14 08:32:04;;;;;;;24.40;16.30;;;;;;;5.00;100.00;102448.78;4993280;28;20257;-54
2022/01/14 08:34:31;;;;;;;28.17;17.43;;;;;;;5.09;100.00;102451.84;4997834;28;20250;-54
2022/01/14 08:36:58;;;;;;;26.23;15.50;;;;;;;5.14;100.00;102458.16;4984975;28;20234;-55
2022/01/14 08:39:25;;;;;;;29.50;16.90;;;;;;;5.16;100.00;102447.81;4999240;28;20230;-57
2022/01/14 08:41:51;;;;;;;32.90;16.37;;;;;;;5.06;100.00;102446.50;4998734;28;20225;-53
2022/01/14 08:44:19;;;;;;;24.70;14.43;;;;;;;5.07;100.00;102443.06;4998186;28;20237;-55
2022/01/14 08:46:45;;;;;;;27.93;17.27;;;;;;;5.08;100.00;102460.47;4996217;28;20241;-55
2022/01/14 08:49:12;;;;;;;31.17;18.10;;;;;;;5.10;100.00;102442.31;4993479;28;20260;-55
2022/01/14 08:51:38;;;;;;;28.77;17.10;;;;;;;5.01;100.00;102438.44;4998139;28;20644;-54
2022/01/14 08:54:05;;;;;;;32.70;18.80;;;;;;;5.18;100.00;102438.38;5002920;28;20229;-56
2022/01/14 08:56:32;;;;;;;35.13;17.53;;;;;;;5.18;100.00;102454.88;5006095;28;20233;-56
2022/01/14 08:58:59;;;;;;;22.93;16.23;;;;;;;5.03;100.00;102446.34;4997576;28;20751;-55
2022/01/14 09:01:26;;;;;;;34.37;17.37;;;;;;;5.05;100.00;102449.00;5005152;28;20225;-55
2022/01/14 09:03:53;;;;;;;35.50;19.37;;;;;;;5.16;100.00;102438.31;4999312;28;20294;-54
2022/01/14 09:06:20;;;;;;;26.20;17.13;;;;;;;5.09;100.00;102435.31;5002135;28;20324;-55
2022/01/14 09:08:46;;;;;;;27.93;17.77;;;;;;;5.08;100.00;102439.63;4997482;28;20653;-54
2022/01/14 09:11:12;;;;;;;31.87;16.47;;;;;;;5.01;100.00;102424.53;4997263;28;20261;-52
2022/01/14 09:13:39;;;;;;;31.63;17.67;;;;;;;5.00;100.00;102425.34;5000922;28;20276;-52
2022/01/14 09:16:05;;;;;;;32.43;19.70;;;;;;;4.81;100.00;102427.84;4999767;28;20246;-53
2022/01/14 09:18:33;;;;;;;28.63;17.00;;;;;;;4.93;100.00;102423.28;4992125;28;20689;-53
2022/01/14 09:20:59;;;;;;;31.77;18.60;;;;;;;4.92;100.00;102431.91;5001936;28;20244;-53
2022/01/14 09:23:27;;;;;;;31.83;17.83;;;;;;;4.88;100.00;102419.53;4999740;28;20698;-54
2022/01/14 09:25:54;;;;;;;31.60;18.10;;;;;;;4.92;100.00;102426.69;4999317;28;20233;-54
2022/01/14 09:28:21;;;;;;;29.30;16.03;;;;;;;5.05;100.00;102422.97;5001893;28;20668;-55
2022/01/14 09:30:47;;;;;;;33.40;18.03;;;;;;;5.15;100.00;102423.50;5005380;28;20256;-54
2022/01/14 09:33:16;;;;;;;24.90;16.20;;;;;;;5.15;100.00;102433.91;5013011;28;20291;-54
2022/01/14 09:35:43;;;;;;;25.13;15.40;;;;;;;5.20;100.00;102421.13;5010316;28;20269;-55
2022/01/14 09:38:10;;;;;;;22.47;15.20;;;;;;;5.26;100.00;102418.78;4995666;28;20263;-53
2022/01/14 09:40:37;;;;;;;23.67;15.10;;;;;;;5.25;100.00;102423.13;4996039;28;20241;-51
2022/01/14 09:43:03;;;;;;;26.03;15.83;;;;;;;5.17;100.00;102424.47;4989165;28;20229;-52
2022/01/14 09:45:30;;;;;;;27.10;16.47;;;;;;;5.33;100.00;102430.41;4997509;28;20344;-53
2022/01/14 09:47:57;;;;;;;30.77;15.40;;;;;;;5.25;100.00;102427.44;5001159;28;20252;-54
2022/01/14 09:50:24;;;;;;;23.90;15.13;;;;;;;5.33;100.00;102426.06;4990421;28;20490;-54
2022/01/14 09:52:52;;;;;;;26.87;14.83;;;;;;;5.36;100.00;102420.13;4994111;28;20802;-53
2022/01/14 09:55:19;;;;;;;28.43;14.63;;;;;;;5.29;100.00;102418.94;4988286;28;20848;-55
2022/01/14 09:57:46;;;;;;;24.33;14.80;;;;;;;5.41;100.00;102411.72;4999984;28;20253;-54
2022/01/14 10:00:13;;;;;;;20.00;13.67;;;;;;;5.45;100.00;102415.38;4999868;28;20236;-56
2022/01/14 10:02:41;;;;;;;20.87;14.07;;;;;;;5.46;100.00;102396.31;5001606;28;20323;-53
2022/01/14 10:05:10;;;;;;;17.30;12.80;;;;;;;5.48;100.00;102405.09;5001248;28;20261;-53
2022/01/14 10:07:37;;;;;;;22.53;12.67;;;;;;;5.53;100.00;102395.75;5003752;28;20269;-51
2022/01/14 10:10:22;;;;;;;23.57;13.50;;;;;;;5.41;100.00;102395.22;5005458;28;20225;-53
2022/01/14 10:12:48;;;;;;;21.60;12.43;;;;;;;5.45;100.00;102402.34;4999972;28;20234;-53
2022/01/14 10:15:15;;;;;;;20.47;12.17;;;;;;;5.48;100.00;102405.97;4999285;28;20249;-52
2022/01/14 10:17:43;;;;;;;19.70;12.77;;;;;;;5.48;100.00;102411.19;4995203;28;20292;-56
2022/01/14 10:20:13;;;;;;;21.77;12.17;;;;;;;5.43;100.00;102412.66;4996527;28;20314;-56
2022/01/14 10:22:41;;;;;;;23.47;13.27;;;;;;;5.54;100.00;102423.59;5003526;28;20284;-54
2022/01/14 10:25:11;;;;;;;21.57;11.70;;;;;;;5.59;100.00;102419.50;4994031;28;20276;-56
2022/01/14 10:27:39;;;;;;;18.43;10.73;;;;;;;5.61;100.00;102425.66;4999813;28;20795;-55
2022/01/14 10:30:10;;;;;;;17.10;11.10;;;;;;;5.68;100.00;102424.22;4998436;28;21403;-55
2022/01/14 10:32:38;;;;;;;18.80;10.30;;;;;;;5.67;100.00;102427.66;5004782;28;20291;-56
2022/01/14 10:35:05;;;;;;;19.30;11.60;;;;;;;5.72;100.00;102431.38;4999122;28;20235;-53
2022/01/14 10:37:33;;;;;;;18.07;10.53;;;;;;;5.68;100.00;102427.72;5001199;28;20229;-55
2022/01/14 10:39:59;;;;;;;17.17;10.70;;;;;;;5.62;100.00;102422.25;5003441;28;20239;-54
2022/01/14 10:42:29;;;;;;;22.27;10.33;;;;;;;5.78;100.00;102412.53;5008299;28;20660;-57
2022/01/14 10:44:57;;;;;;;15.57;9.53;;;;;;;5.78;100.00;102413.41;5006528;28;20242;-62
2022/01/14 10:47:24;;;;;;;15.63;10.80;;;;;;;5.85;100.00;102423.28;4995287;28;20683;-57
2022/01/14 10:49:57;;;;;;;18.83;11.03;;;;;;;5.86;100.00;102413.75;4998734;28;20279;-54
2022/01/14 10:52:25;;;;;;;15.43;10.30;;;;;;;5.92;100.00;102399.31;5000576;28;20294;-59
2022/01/14 10:54:53;;;;;;;16.93;9.57;;;;;;;5.92;100.00;102408.81;4996758;28;20913;-55
2022/01/14 10:57:21;;;;;;;14.53;9.53;;;;;;;5.91;100.00;102391.41;5000089;28;20649;-57
2022/01/14 10:59:50;;;;;;;15.53;8.67;;;;;;;5.93;100.00;102392.38;4993425;28;20288;-55
2022/01/14 11:02:33;;;;;;;12.83;8.33;;;;;;;5.88;100.00;102397.38;4997804;28;20237;-55
2022/01/14 11:05:01;;;;;;;12.27;8.80;;;;;;;6.05;100.00;102405.97;5004601;28;20225;-55
2022/01/14 11:07:28;;;;;;;12.63;8.57;;;;;;;6.03;100.00;102402.41;5008351;28;21131;-61
2022/01/14 11:09:56;;;;;;;14.00;8.83;;;;;;;6.08;100.00;102400.03;5011459;28;20233;-56
2022/01/14 11:12:23;;;;;;;24.23;9.33;;;;;;;6.12;100.00;102397.59;5018732;28;20342;-58
2022/01/14 11:14:50;;;;;;;17.57;9.43;;;;;;;6.22;100.00;102405.00;5021964;28;20237;-58
2022/01/14 11:17:17;;;;;;;15.53;8.43;;;;;;;6.26;100.00;102407.75;5020841;28;20238;-59
2022/01/14 11:19:45;;;;;;;22.67;7.77;;;;;;;6.20;100.00;102430.13;5023436;28;20233;-57
2022/01/14 11:24:56;;;;;;;14.27;7.70;;;;;;;6.27;100.00;102406.91;4995796;28;20233;-58
2022/01/14 11:27:22;;;;;;;11.90;7.63;;;;;;;6.28;100.00;102401.75;4995471;28;20285;-57
2022/01/14 11:29:51;;;;;;;14.00;8.87;;;;;;;6.34;100.00;102395.94;4996781;28;20264;-55
2022/01/14 11:32:18;;;;;;;14.23;7.83;;;;;;;6.34;100.00;102402.03;4993812;28;20229;-55